Terminal Aerodrome Forecast
Issued by NWS Grand Forks, ND

Home | Current Version | Previous Version | Graphics & Text | Print | Product List | Glossary On
Versions: 1 2 3 4 5 6 7 8 9 10 11 12 13 14 15 16 17
000
FTUS43 KFGF 220537
TAFFAR
TAF
KFAR 220537Z 2206/2306 24005KT P6SM SCT200
     FM221200 17010KT P6SM SCT050 BKN090
     FM221700 17015G24KT P6SM SCT025 BKN050
      TEMPO 2220/2223 16015G24KT 3SM -SN OVC020
     FM230000 33007KT P6SM BKN025=

USA.gov is the U.S. government's official web portal to all federal, state and local government web resources and services.